createdAt,value
2023-12-15T00:00:58.954Z,100757.25
2023-12-15T00:04:01.646Z,100763.19
2023-12-15T00:07:04.608Z,100763.25
2023-12-15T00:10:08.246Z,100769.19
2023-12-15T00:13:11.292Z,100777.44
2023-12-15T00:16:13.987Z,100785.72
2023-12-15T00:19:17.076Z,100777.28
2023-12-15T00:22:22.898Z,100789.03
2023-12-15T00:25:25.914Z,100799.13
2023-12-15T00:28:28.661Z,100794.97
2023-12-15T00:31:31.553Z,100805.56
2023-12-15T00:34:34.736Z,100818.19
2023-12-15T00:37:38.169Z,100830.69
2023-12-15T00:40:41.100Z,100827.37
2023-12-15T00:43:43.837Z,100825.47
2023-12-15T00:46:46.507Z,100824.16
2023-12-15T00:49:49.528Z,100822.75
2023-12-15T00:52:52.261Z,100824.53
2023-12-15T00:55:55.392Z,100837.88
2023-12-15T00:58:58.599Z,100846.78
2023-12-15T01:02:01.368Z,100846.34
2023-12-15T01:05:04.548Z,100860.09
2023-12-15T01:08:10.953Z,100866.25
2023-12-15T01:11:14.043Z,100863.44
2023-12-15T01:14:16.996Z,100869.03
2023-12-15T01:17:22.778Z,100873.19
2023-12-15T01:20:25.779Z,100876.75
2023-12-15T01:23:28.864Z,100889.81
2023-12-15T01:26:32.112Z,100879.72
2023-12-15T01:29:34.902Z,100884.97
2023-12-15T01:32:37.834Z,100884.50
2023-12-15T01:35:41.038Z,100891.06
2023-12-15T01:38:45.232Z,100894.72
2023-12-15T01:41:54.029Z,100892.97
2023-12-15T01:44:56.848Z,100888.34
2023-12-15T01:48:03.473Z,100889.03
2023-12-15T01:51:06.923Z,100895.63
2023-12-15T01:54:13.188Z,100907.38
2023-12-15T01:57:16.691Z,100904.00
2023-12-15T02:00:19.545Z,100906.62
2023-12-15T02:03:22.366Z,100898.97
2023-12-15T02:06:25.379Z,100907.03
2023-12-15T02:09:28.437Z,100911.66
2023-12-15T02:12:31.166Z,100916.28
2023-12-15T02:15:33.840Z,100916.84
2023-12-15T02:18:36.704Z,100921.25
2023-12-15T02:21:39.499Z,100931.59
2023-12-15T02:24:42.501Z,100937.22
2023-12-15T02:27:45.579Z,100931.16
2023-12-15T02:30:48.423Z,100940.41
2023-12-15T02:33:51.498Z,100943.66
2023-12-15T02:36:54.470Z,100949.37
2023-12-15T02:39:57.207Z,100936.81
2023-12-15T02:43:00.889Z,100946.31
2023-12-15T02:46:03.750Z,100940.50
2023-12-15T02:49:06.589Z,100954.84
2023-12-15T02:52:09.609Z,100961.28
2023-12-15T02:55:15.417Z,100953.31
2023-12-15T02:58:19.046Z,100977.00
2023-12-15T03:01:24.913Z,100978.06
2023-12-15T03:04:27.923Z,100977.47
2023-12-15T03:07:30.641Z,100985.34
2023-12-15T03:10:33.639Z,100981.06
2023-12-15T03:13:38.283Z,100990.78
2023-12-15T03:16:41.245Z,100995.84
2023-12-15T03:19:44.453Z,101003.00
2023-12-15T03:22:47.134Z,100997.62
2023-12-15T03:25:52.813Z,100994.19
2023-12-15T03:28:55.800Z,101013.09
2023-12-15T03:31:58.982Z,101019.72
2023-12-15T03:35:01.768Z,101030.44
2023-12-15T03:38:05.577Z,101022.12
2023-12-15T03:41:08.292Z,101026.41
2023-12-15T03:44:11.284Z,101038.06
2023-12-15T03:47:14.164Z,101039.41
2023-12-15T03:50:17.008Z,101035.97
2023-12-15T03:53:19.767Z,101043.31
2023-12-15T03:56:26.761Z,101053.53
2023-12-15T03:59:32.395Z,101055.69
2023-12-15T04:02:35.905Z,101054.03
2023-12-15T04:05:38.925Z,101069.72
2023-12-15T04:08:45.473Z,101063.06
2023-12-15T04:11:49.013Z,101063.91
2023-12-15T04:14:55.200Z,101076.03
2023-12-15T04:17:58.097Z,101086.84
2023-12-15T04:21:01.726Z,101083.59
2023-12-15T04:24:05.405Z,101092.66
2023-12-15T04:27:17.324Z,101095.28
2023-12-15T04:30:22.990Z,101102.28
2023-12-15T04:33:25.897Z,101103.72
2023-12-15T04:36:28.582Z,101111.09
2023-12-15T04:39:31.365Z,101117.41
2023-12-15T04:42:34.090Z,101128.56
2023-12-15T04:45:37.057Z,101131.91
2023-12-15T04:48:41.047Z,101137.25
2023-12-15T04:51:46.694Z,101149.37
2023-12-15T04:54:49.340Z,101152.25
2023-12-15T04:57:55.071Z,101159.13
2023-12-15T05:01:00.843Z,101165.31
2023-12-15T05:04:04.059Z,101160.09
2023-12-15T05:07:09.796Z,101166.63
2023-12-15T05:10:13.003Z,101154.63
2023-12-15T05:13:17.190Z,101169.59
2023-12-15T05:16:22.968Z,101164.84
2023-12-15T05:19:25.733Z,101183.28
2023-12-15T05:22:28.520Z,101191.97
2023-12-15T05:25:31.261Z,101187.78
2023-12-15T05:28:37.120Z,101187.62
2023-12-15T05:31:45.790Z,101191.84
2023-12-15T05:34:48.920Z,101196.31
2023-12-15T05:37:52.124Z,101201.56
2023-12-15T05:40:54.973Z,101200.84
2023-12-15T05:43:57.745Z,101206.78
2023-12-15T05:47:00.852Z,101214.41
2023-12-15T05:50:07.588Z,101216.87
2023-12-15T05:53:13.535Z,101232.44
2023-12-15T05:56:16.462Z,101244.81
2023-12-15T05:59:19.312Z,101244.81
2023-12-15T06:02:22.125Z,101251.31
2023-12-15T06:05:25.012Z,101255.84
2023-12-15T06:08:28.318Z,101258.44
2023-12-15T06:11:31.577Z,101252.88
2023-12-15T06:14:34.821Z,101256.91
2023-12-15T06:17:37.853Z,101262.12
2023-12-15T06:20:40.926Z,101267.25
2023-12-15T06:23:43.731Z,101264.75
2023-12-15T06:26:46.518Z,101277.34
2023-12-15T06:29:49.616Z,101279.25
2023-12-15T06:32:52.747Z,101282.09
2023-12-15T06:35:55.581Z,101286.38
2023-12-15T06:38:58.495Z,101288.28
2023-12-15T06:42:04.371Z,101299.69
2023-12-15T06:45:09.776Z,101316.53
2023-12-15T06:48:12.892Z,101331.63
2023-12-15T06:51:15.764Z,101337.69
2023-12-15T06:54:18.589Z,101338.97
2023-12-15T06:57:21.552Z,101342.06
2023-12-15T07:00:24.211Z,101346.56
2023-12-15T07:03:27.236Z,101361.53
2023-12-15T07:06:30.339Z,101374.16
2023-12-15T07:09:33.448Z,101385.78
2023-12-15T07:12:36.088Z,101383.06
2023-12-15T07:15:39.360Z,101381.94
2023-12-15T07:18:42.229Z,101404.41
2023-12-15T07:21:45.067Z,101403.47
2023-12-15T07:24:48.162Z,101417.81
2023-12-15T07:27:51.624Z,101417.59
2023-12-15T07:30:54.436Z,101430.66
2023-12-15T07:33:57.786Z,101443.94
2023-12-15T07:37:00.572Z,101452.62
2023-12-15T07:40:05.260Z,101463.31
2023-12-15T07:43:08.365Z,101463.41
2023-12-15T07:46:18.640Z,101463.50
2023-12-15T07:49:21.561Z,101475.75
2023-12-15T07:52:24.282Z,101463.19
2023-12-15T07:55:27.088Z,101480.13
2023-12-15T07:58:29.739Z,101480.31
2023-12-15T08:01:32.965Z,101488.09
2023-12-15T08:04:35.904Z,101486.19
2023-12-15T08:07:39.210Z,101501.16
2023-12-15T08:10:42.147Z,101502.09
2023-12-15T08:13:45.426Z,101514.94
2023-12-15T08:16:48.327Z,101514.13
2023-12-15T08:19:51.367Z,101526.13
2023-12-15T08:22:54.480Z,101526.25
2023-12-15T08:25:57.447Z,101528.84
2023-12-15T08:29:00.316Z,101539.31
2023-12-15T08:32:03.283Z,101540.34
2023-12-15T08:35:06.937Z,101543.97
2023-12-15T08:38:10.469Z,101549.03
2023-12-15T08:41:13.789Z,101543.03
2023-12-15T08:44:24.468Z,101562.72
2023-12-15T08:47:32.506Z,101555.09
2023-12-15T08:50:35.559Z,101566.50
2023-12-15T08:53:38.464Z,101586.25
2023-12-15T08:56:41.479Z,101599.22
2023-12-15T08:59:44.382Z,101599.31
2023-12-15T09:02:47.261Z,101599.31
2023-12-15T09:06:08.131Z,101597.44
2023-12-15T09:09:13.367Z,101595.75
2023-12-15T09:12:16.214Z,101605.91
2023-12-15T09:15:19.505Z,101604.31
2023-12-15T09:18:22.336Z,101616.25
2023-12-15T09:21:25.188Z,101618.97
2023-12-15T09:24:27.937Z,101640.50
2023-12-15T09:27:30.614Z,101634.34
2023-12-15T09:30:34.255Z,101645.31
2023-12-15T09:33:36.990Z,101644.06
2023-12-15T09:36:39.669Z,101635.59
2023-12-15T09:39:42.419Z,101639.97
2023-12-15T09:42:45.375Z,101648.56
2023-12-15T09:45:48.342Z,101648.66
2023-12-15T09:48:51.648Z,101664.78
2023-12-15T09:51:54.848Z,101657.66
2023-12-15T09:54:57.899Z,101663.63
2023-12-15T09:58:01.322Z,101658.50
2023-12-15T10:01:05.344Z,101662.25
2023-12-15T10:04:08.427Z,101669.38
2023-12-15T10:07:11.221Z,101675.13
2023-12-15T10:10:14.214Z,101675.03
2023-12-15T10:13:17.173Z,101665.50
2023-12-15T10:16:22.775Z,101671.47
2023-12-15T10:19:26.337Z,101678.25
2023-12-15T10:22:29.380Z,101686.63
2023-12-15T10:25:34.307Z,101688.63
2023-12-15T10:28:40.111Z,101683.91
2023-12-15T10:31:43.806Z,101691.66
2023-12-15T10:34:48.037Z,101695.19
2023-12-15T10:37:57.197Z,101698.84
2023-12-15T10:41:00.609Z,101712.66
2023-12-15T10:44:03.532Z,101710.16
2023-12-15T10:47:07.688Z,101717.59
2023-12-15T10:50:11.042Z,101729.09
2023-12-15T10:53:16.301Z,101743.09
2023-12-15T10:56:19.405Z,101748.63
2023-12-15T10:59:22.512Z,101745.91
2023-12-15T11:02:29.452Z,101748.22
2023-12-15T11:05:38.525Z,101755.13
2023-12-15T11:08:41.996Z,101755.75
2023-12-15T11:11:45.341Z,101762.66
2023-12-15T11:14:56.196Z,101759.53
2023-12-15T11:18:00.341Z,101764.66
2023-12-15T11:21:04.092Z,101767.50
2023-12-15T11:24:08.803Z,101758.34
2023-12-15T11:27:15.227Z,101762.81
2023-12-15T11:30:39.250Z,101765.00
2023-12-15T11:33:42.803Z,101764.59
2023-12-15T11:36:46.464Z,101768.59
2023-12-15T11:39:50.676Z,101762.37
2023-12-15T11:42:53.706Z,101780.19
2023-12-15T11:45:56.493Z,101776.84
2023-12-15T11:48:59.317Z,101780.53
2023-12-15T11:52:03.752Z,101778.94
2023-12-15T11:55:06.994Z,101782.91
2023-12-15T11:58:10.531Z,101782.97
2023-12-15T12:01:15.915Z,101792.63
2023-12-15T12:04:20.417Z,101799.00
2023-12-15T12:07:23.525Z,101792.38
2023-12-15T12:10:32.361Z,101798.03
2023-12-15T12:13:37.242Z,101795.75
2023-12-15T12:16:40.020Z,101799.81
2023-12-15T12:19:44.016Z,101799.50
2023-12-15T12:22:47.613Z,101818.53
2023-12-15T12:25:52.698Z,101812.87
2023-12-15T12:29:00.593Z,101828.47
2023-12-15T12:32:06.911Z,101824.81
2023-12-15T12:35:09.997Z,101833.50
2023-12-15T12:38:12.837Z,101834.84
2023-12-15T12:41:15.698Z,101829.06
2023-12-15T12:44:18.847Z,101834.72
2023-12-15T12:47:22.114Z,101832.31
2023-12-15T12:50:25.500Z,101830.53
2023-12-15T12:53:28.662Z,101838.03
2023-12-15T12:56:31.566Z,101857.91
2023-12-15T12:59:34.439Z,101850.28
2023-12-15T13:02:39.495Z,101854.97
2023-12-15T13:05:43.158Z,101857.88
2023-12-15T13:08:46.309Z,101858.06
2023-12-15T13:11:49.915Z,101867.78
2023-12-15T13:14:52.879Z,101875.62
2023-12-15T13:18:01.240Z,101880.00
2023-12-15T13:21:05.194Z,101880.66
2023-12-15T13:24:09.662Z,101885.16
2023-12-15T13:27:12.447Z,101889.88
2023-12-15T13:30:15.647Z,101895.50
2023-12-15T13:33:18.896Z,101899.25
2023-12-15T13:36:22.531Z,101901.94
2023-12-15T13:39:25.669Z,101912.59
2023-12-15T13:42:28.402Z,101925.56
2023-12-15T13:45:31.506Z,101926.41
2023-12-15T13:48:37.547Z,101920.91
2023-12-15T13:51:40.508Z,101927.16
2023-12-15T13:54:43.740Z,101930.06
2023-12-15T13:57:47.103Z,101932.03
2023-12-15T14:00:50.102Z,101945.72
2023-12-15T14:03:53.158Z,101945.25
2023-12-15T14:07:00.182Z,101946.47
2023-12-15T14:10:07.356Z,101950.84
2023-12-15T14:13:10.558Z,101952.72
2023-12-15T14:16:13.699Z,101958.09
2023-12-15T14:19:18.926Z,101968.72
2023-12-15T14:22:22.908Z,101967.41
2023-12-15T14:25:26.374Z,101965.75
2023-12-15T14:28:29.461Z,101975.44
2023-12-15T14:31:35.640Z,101968.63
2023-12-15T14:34:38.433Z,101984.38
2023-12-15T14:37:41.111Z,101982.13
2023-12-15T14:40:43.842Z,101998.34
2023-12-15T14:43:46.886Z,102003.84
2023-12-15T14:46:49.809Z,102000.75
2023-12-15T14:49:53.085Z,101999.16
2023-12-15T14:52:55.737Z,102010.44
2023-12-15T14:56:02.172Z,102022.56
2023-12-15T14:59:08.486Z,102024.78
2023-12-15T15:02:12.140Z,102025.63
2023-12-15T15:05:14.976Z,102032.63
2023-12-15T15:08:18.131Z,102021.75
2023-12-15T15:11:21.253Z,102029.34
2023-12-15T15:14:24.240Z,102032.25
2023-12-15T15:17:29.273Z,102039.25
2023-12-15T15:20:35.390Z,102048.00
2023-12-15T15:23:38.196Z,102046.50
2023-12-15T15:26:40.960Z,102038.09
2023-12-15T15:29:43.835Z,102063.25
2023-12-15T15:32:54.071Z,102061.56
2023-12-15T15:35:57.671Z,102060.63
2023-12-15T15:39:00.890Z,102064.34
2023-12-15T15:42:03.803Z,102070.41
2023-12-15T15:45:06.916Z,102070.25
2023-12-15T15:48:13.153Z,102071.59
2023-12-15T15:51:25.227Z,102082.03
2023-12-15T15:54:28.088Z,102101.88
2023-12-15T15:57:30.868Z,102110.47
2023-12-15T16:00:33.832Z,102108.19
2023-12-15T16:03:38.415Z,102109.38
2023-12-15T16:06:42.213Z,102116.19
2023-12-15T16:09:47.762Z,102126.47
2023-12-15T16:12:50.680Z,102129.91
2023-12-15T16:15:57.023Z,102135.22
2023-12-15T16:18:59.796Z,102145.13
2023-12-15T16:22:02.660Z,102150.50
2023-12-15T16:25:05.865Z,102144.47
2023-12-15T16:28:08.960Z,102151.34
2023-12-15T16:31:18.159Z,102162.47
2023-12-15T16:34:21.671Z,102167.69
2023-12-15T16:37:24.388Z,102185.87
2023-12-15T16:40:27.197Z,102189.47
2023-12-15T16:43:32.910Z,102190.47
2023-12-15T16:46:35.632Z,102192.25
2023-12-15T16:49:42.499Z,102201.06
2023-12-15T16:52:45.203Z,102198.47
2023-12-15T16:55:47.906Z,102193.34
2023-12-15T16:58:50.778Z,102205.78
2023-12-15T17:01:53.633Z,102199.00
2023-12-15T17:04:57.226Z,102214.44
2023-12-15T17:08:00.214Z,102216.28
2023-12-15T17:11:02.986Z,102218.19
2023-12-15T17:14:05.817Z,102214.66
2023-12-15T17:17:08.621Z,102214.19
2023-12-15T17:20:12.086Z,102228.69
2023-12-15T17:23:15.023Z,102224.47
2023-12-15T17:26:20.939Z,102219.25
2023-12-15T17:29:25.771Z,102231.38
2023-12-15T17:32:31.072Z,102232.38
2023-12-15T17:35:33.775Z,102229.94
2023-12-15T17:38:36.458Z,102229.25
2023-12-15T17:41:39.120Z,102236.97
2023-12-15T17:44:42.011Z,102226.19
2023-12-15T17:47:44.913Z,102232.31
2023-12-15T17:50:49.628Z,102237.37
2023-12-15T17:53:52.709Z,102243.50
2023-12-15T17:56:55.338Z,102253.63
2023-12-15T17:59:58.620Z,102240.75
2023-12-15T18:03:01.911Z,102242.66
2023-12-15T18:06:05.138Z,102248.72
2023-12-15T18:09:08.056Z,102251.94
2023-12-15T18:12:10.999Z,102256.47
2023-12-15T18:15:14.803Z,102252.94
2023-12-15T18:18:17.492Z,102263.44
2023-12-15T18:21:21.769Z,102260.06
2023-12-15T18:24:24.666Z,102266.81
2023-12-15T18:27:27.682Z,102267.91
2023-12-15T18:30:30.856Z,102277.72
2023-12-15T18:33:34.637Z,102278.72
2023-12-15T18:36:37.391Z,102273.72
2023-12-15T18:39:40.773Z,102277.31
2023-12-15T18:42:44.698Z,102282.00
2023-12-15T18:45:47.791Z,102277.78
2023-12-15T18:48:50.763Z,102289.72
2023-12-15T18:51:53.561Z,102286.34
2023-12-15T18:54:58.060Z,102285.59
2023-12-15T18:58:01.286Z,102292.41
2023-12-15T19:01:04.400Z,102295.41
2023-12-15T19:04:07.504Z,102284.53
2023-12-15T19:07:10.467Z,102293.25
2023-12-15T19:10:13.840Z,102296.09
2023-12-15T19:13:16.714Z,102291.75
2023-12-15T19:16:19.504Z,102297.78
2023-12-15T19:19:23.517Z,102304.69
2023-12-15T19:22:26.346Z,102312.75
2023-12-15T19:25:29.171Z,102318.13
2023-12-15T19:28:31.868Z,102316.72
2023-12-15T19:31:34.671Z,102331.03
2023-12-15T19:34:37.628Z,102312.31
2023-12-15T19:37:40.835Z,102321.97
2023-12-15T19:40:43.794Z,102328.16
2023-12-15T19:43:47.699Z,102330.00
2023-12-15T19:46:50.395Z,102333.44
2023-12-15T19:49:53.168Z,102324.41
2023-12-15T19:52:57.082Z,102339.91
2023-12-15T19:56:00.902Z,102341.03
2023-12-15T19:59:07.303Z,102343.69
2023-12-15T20:02:15.242Z,102340.38
2023-12-15T20:05:20.892Z,102331.72
2023-12-15T20:08:23.610Z,102345.44
2023-12-15T20:11:29.792Z,102346.56
2023-12-15T20:14:32.562Z,102353.47
2023-12-15T20:17:35.630Z,102355.37
2023-12-15T20:20:38.648Z,102349.38
2023-12-15T20:23:41.336Z,102350.66
2023-12-15T20:26:44.705Z,102352.53
2023-12-15T20:29:47.415Z,102354.72
2023-12-15T20:32:50.304Z,102347.19
2023-12-15T20:35:56.171Z,102356.97
2023-12-15T20:39:02.454Z,102358.94
2023-12-15T20:42:09.765Z,102348.03
2023-12-15T20:45:16.092Z,102362.66
2023-12-15T20:48:19.697Z,102361.87
2023-12-15T20:51:25.623Z,102354.97
2023-12-15T20:54:28.451Z,102358.34
2023-12-15T20:57:32.040Z,102345.75
2023-12-15T21:00:40.939Z,102352.50
2023-12-15T21:03:43.714Z,102344.25
2023-12-15T21:06:49.623Z,102349.72
2023-12-15T21:09:53.668Z,102365.31
2023-12-15T21:13:06.512Z,102368.25
2023-12-15T21:16:09.868Z,102368.19
2023-12-15T21:19:12.791Z,102377.59
2023-12-15T21:22:15.525Z,102373.84
2023-12-15T21:25:18.980Z,102376.63
2023-12-15T21:28:21.749Z,102375.59
2023-12-15T21:31:25.274Z,102375.06
2023-12-15T21:34:29.924Z,102391.25
2023-12-15T21:37:35.729Z,102391.12
2023-12-15T21:40:38.561Z,102391.19
2023-12-15T21:43:41.214Z,102386.00
2023-12-15T21:46:44.015Z,102392.44
2023-12-15T21:49:53.644Z,102385.66
2023-12-15T21:53:00.263Z,102378.78
2023-12-15T21:56:09.858Z,102374.19
2023-12-15T21:59:14.087Z,102379.44
2023-12-15T22:02:17.371Z,102367.72
2023-12-15T22:05:20.460Z,102376.63
2023-12-15T22:08:23.206Z,102370.94
2023-12-15T22:11:26.687Z,102370.09
2023-12-15T22:14:35.915Z,102374.78
2023-12-15T22:17:46.133Z,102369.03
2023-12-15T22:20:49.005Z,102359.00
2023-12-15T22:23:51.949Z,102356.66
2023-12-15T22:26:54.685Z,102362.81
2023-12-15T22:29:58.203Z,102358.41
2023-12-15T22:33:01.126Z,102359.78
2023-12-15T22:36:04.447Z,102369.94
2023-12-15T22:39:08.119Z,102368.19
2023-12-15T22:42:11.028Z,102347.59
2023-12-15T22:45:13.877Z,102352.31
2023-12-15T22:48:16.925Z,102349.91
2023-12-15T22:51:19.707Z,102369.88
2023-12-15T22:54:22.396Z,102368.25
2023-12-15T22:57:25.975Z,102362.88
2023-12-15T23:00:31.540Z,102367.47
2023-12-15T23:03:34.387Z,102371.50
2023-12-15T23:06:37.145Z,102373.31
2023-12-15T23:09:39.852Z,102374.41
2023-12-15T23:12:42.543Z,102378.19
2023-12-15T23:15:45.490Z,102374.88
2023-12-15T23:18:48.660Z,102375.00
2023-12-15T23:21:51.748Z,102378.38
2023-12-15T23:24:54.496Z,102383.06
2023-12-15T23:27:58.384Z,102392.28
2023-12-15T23:31:01.443Z,102377.38
2023-12-15T23:34:04.433Z,102389.72
2023-12-15T23:37:07.372Z,102389.63
2023-12-15T23:40:10.872Z,102395.87
2023-12-15T23:43:13.613Z,102397.25
2023-12-15T23:46:16.500Z,102402.78
2023-12-15T23:49:19.458Z,102402.28
2023-12-15T23:52:25.140Z,102398.09
2023-12-15T23:55:28.044Z,102396.69
2023-12-15T23:58:31.033Z,102380.81
